createdAt,value
2022-12-31T00:02:45.663Z,99637.53
2022-12-31T00:05:47.502Z,99647.31
2022-12-31T00:08:51.213Z,99649.97
2022-12-31T00:11:53.083Z,99652.63
2022-12-31T00:14:54.873Z,99655.25
2022-12-31T00:17:56.674Z,99662.50
2022-12-31T00:20:58.562Z,99668.78
2022-12-31T00:24:01.022Z,99671.19
2022-12-31T00:27:03.093Z,99670.34
2022-12-31T00:30:05.424Z,99668.53
2022-12-31T00:33:07.448Z,99666.94
2022-12-31T00:36:12.518Z,99668.28
2022-12-31T00:39:14.452Z,99670.34
2022-12-31T00:42:16.350Z,99668.63
2022-12-31T00:45:18.173Z,99658.38
2022-12-31T00:48:20.048Z,99669.34
2022-12-31T00:51:24.047Z,99649.22
2022-12-31T00:54:25.950Z,99650.19
2022-12-31T00:57:27.807Z,99656.22
2022-12-31T01:00:29.643Z,99650.91
2022-12-31T01:03:31.635Z,99648.13
2022-12-31T01:06:33.700Z,99651.16
2022-12-31T01:09:35.566Z,99646.56
2022-12-31T01:12:37.425Z,99625.09
2022-12-31T01:15:39.561Z,99624.03
2022-12-31T01:18:42.115Z,99630.66
2022-12-31T01:21:45.457Z,99640.41
2022-12-31T01:24:47.310Z,99625.81
2022-12-31T01:27:49.097Z,99641.38
2022-12-31T01:30:51.022Z,99645.72
2022-12-31T01:33:53.748Z,99656.34
2022-12-31T01:36:55.664Z,99669.47
2022-12-31T01:39:57.510Z,99668.97
2022-12-31T01:42:59.361Z,99683.44
2022-12-31T01:46:01.236Z,99682.31
2022-12-31T01:49:08.784Z,99692.06
2022-12-31T01:52:17.808Z,99699.06
2022-12-31T01:55:30.457Z,99701.19
2022-12-31T01:58:39.418Z,99700.69
2022-12-31T02:01:41.350Z,99717.19
2022-12-31T02:04:43.532Z,99700.44
2022-12-31T02:07:47.477Z,99703.94
2022-12-31T02:10:49.338Z,99703.31
2022-12-31T02:13:58.159Z,99703.06
2022-12-31T02:17:07.492Z,99708.38
2022-12-31T02:20:37.349Z,99706.34
2022-12-31T02:23:57.376Z,99709.13
2022-12-31T02:27:10.386Z,99715.50
2022-12-31T02:30:22.898Z,99714.19
2022-12-31T02:33:33.032Z,99710.56
2022-12-31T02:36:38.999Z,99723.78
2022-12-31T02:39:43.273Z,99716.09
2022-12-31T02:42:48.615Z,99714.06
2022-12-31T02:46:14.906Z,99720.94
2022-12-31T02:49:21.457Z,99719.88
2022-12-31T02:52:39.955Z,99720.75
2022-12-31T02:56:22.324Z,99727.22
2022-12-31T03:00:12.160Z,99738.03
2022-12-31T03:03:14.208Z,99752.06
2022-12-31T03:06:16.236Z,99747.19
2022-12-31T03:09:18.122Z,99760.19
2022-12-31T03:12:41.034Z,99752.75
2022-12-31T03:15:42.993Z,99756.25
2022-12-31T03:19:03.450Z,99765.28
2022-12-31T03:22:23.999Z,99763.13
2022-12-31T03:25:35.420Z,99769.06
2022-12-31T03:28:39.555Z,99774.25
2022-12-31T03:31:41.511Z,99773.84
2022-12-31T03:34:43.595Z,99769.19
2022-12-31T03:37:45.433Z,99776.69
2022-12-31T03:40:50.623Z,99777.41
2022-12-31T03:43:52.468Z,99784.06
2022-12-31T03:46:54.312Z,99781.19
2022-12-31T03:49:56.184Z,99792.66
2022-12-31T03:52:58.545Z,99791.78
2022-12-31T03:56:00.486Z,99791.91
2022-12-31T03:59:02.312Z,99790.72
2022-12-31T04:02:04.947Z,99801.09
2022-12-31T04:05:07.681Z,99796.75
2022-12-31T04:08:09.634Z,99793.03
2022-12-31T04:11:14.731Z,99798.84
2022-12-31T04:14:20.876Z,99807.75
2022-12-31T04:17:22.724Z,99806.97
2022-12-31T04:20:24.666Z,99815.16
2022-12-31T04:23:26.515Z,99808.78
2022-12-31T04:26:28.330Z,99809.66
2022-12-31T04:29:30.138Z,99818.97
2022-12-31T04:32:31.975Z,99822.38
2022-12-31T04:35:33.811Z,99829.59
2022-12-31T04:38:35.792Z,99835.00
2022-12-31T04:41:37.611Z,99835.84
2022-12-31T04:44:39.406Z,99832.13
2022-12-31T04:47:41.280Z,99841.25
2022-12-31T04:50:43.100Z,99843.59
2022-12-31T04:53:45.349Z,99848.78
2022-12-31T04:56:47.162Z,99855.06
2022-12-31T04:59:49.053Z,99858.47
2022-12-31T05:02:50.944Z,99858.13
2022-12-31T05:05:53.916Z,99861.44
2022-12-31T05:08:55.856Z,99869.50
2022-12-31T05:11:57.744Z,99879.47
2022-12-31T05:14:59.614Z,99882.44
2022-12-31T05:18:01.531Z,99889.44
2022-12-31T05:21:03.590Z,99890.28
2022-12-31T05:24:05.958Z,99899.94
2022-12-31T05:27:07.796Z,99913.59
2022-12-31T05:30:10.132Z,99915.28
2022-12-31T05:33:12.039Z,99910.53
2022-12-31T05:36:14.714Z,99918.03
2022-12-31T05:39:17.915Z,99934.03
2022-12-31T05:42:19.791Z,99931.72
2022-12-31T05:45:26.799Z,99948.34
2022-12-31T05:48:32.479Z,99957.44
2022-12-31T05:51:34.366Z,99952.13
2022-12-31T05:54:36.727Z,99958.47
2022-12-31T05:57:39.578Z,99968.97
2022-12-31T06:00:42.848Z,99971.53
2022-12-31T06:03:44.740Z,99974.19
2022-12-31T06:06:46.678Z,99969.19
2022-12-31T06:09:49.086Z,99980.13
2022-12-31T06:12:50.849Z,99975.88
2022-12-31T06:15:52.651Z,99980.88
2022-12-31T06:18:54.773Z,99987.88
2022-12-31T06:21:56.768Z,99995.47
2022-12-31T06:24:58.572Z,99999.91
2022-12-31T06:28:00.573Z,100005.25
2022-12-31T06:31:07.901Z,100011.81
2022-12-31T06:34:10.406Z,100002.81
2022-12-31T06:37:12.316Z,100006.94
2022-12-31T06:40:14.699Z,100015.13
2022-12-31T06:43:16.477Z,100010.88
2022-12-31T06:46:18.823Z,100013.53
2022-12-31T06:49:20.803Z,100022.44
2022-12-31T06:52:22.927Z,100032.81
2022-12-31T06:55:25.225Z,100033.47
2022-12-31T06:58:27.346Z,100034.59
2022-12-31T07:01:44.684Z,100042.03
2022-12-31T07:05:28.229Z,100031.47
2022-12-31T07:09:14.581Z,100044.38
2022-12-31T07:12:45.673Z,100052.25
2022-12-31T07:16:01.436Z,100052.34
2022-12-31T07:19:24.255Z,100061.34
2022-12-31T07:22:26.592Z,100057.44
2022-12-31T07:25:28.895Z,100055.22
2022-12-31T07:28:42.492Z,100052.97
2022-12-31T07:31:50.116Z,100057.56
2022-12-31T07:35:10.964Z,100057.97
2022-12-31T07:38:47.862Z,100065.91
2022-12-31T07:42:14.125Z,100061.91
2022-12-31T07:45:28.556Z,100064.34
2022-12-31T07:48:31.061Z,100068.78
2022-12-31T07:51:34.785Z,100068.59
2022-12-31T07:54:36.592Z,100069.13
2022-12-31T07:58:09.136Z,100075.06
2022-12-31T08:01:19.981Z,100079.09
2022-12-31T08:04:40.805Z,100080.47
2022-12-31T08:07:48.091Z,100081.31
2022-12-31T08:11:16.898Z,100070.50
2022-12-31T08:14:19.675Z,100071.75
2022-12-31T08:17:21.797Z,100073.03
2022-12-31T08:20:23.704Z,100063.06
2022-12-31T08:23:33.880Z,100067.31
2022-12-31T08:26:53.171Z,100068.56
2022-12-31T08:30:01.677Z,100064.53
2022-12-31T08:33:22.124Z,100070.56
2022-12-31T08:36:38.960Z,100070.78
2022-12-31T08:40:03.402Z,100075.97
2022-12-31T08:43:49.655Z,100079.56
2022-12-31T08:47:03.437Z,100070.03
2022-12-31T08:50:06.864Z,100072.56
2022-12-31T08:53:08.916Z,100071.50
2022-12-31T08:56:17.413Z,100063.75
2022-12-31T08:59:53.002Z,100059.28
2022-12-31T09:03:16.884Z,100060.75
2022-12-31T09:06:31.640Z,100052.38
2022-12-31T09:09:51.252Z,100069.78
2022-12-31T09:13:15.807Z,100073.41
2022-12-31T09:16:30.313Z,100074.06
2022-12-31T09:19:32.190Z,100083.06
2022-12-31T09:22:34.255Z,100082.44
2022-12-31T09:25:45.104Z,100078.47
2022-12-31T09:29:17.330Z,100073.69
2022-12-31T09:32:19.094Z,100075.38
2022-12-31T09:35:53.844Z,100070.63
2022-12-31T09:39:12.832Z,100064.69
2022-12-31T09:42:52.157Z,100068.44
2022-12-31T09:46:08.979Z,100063.97
2022-12-31T09:49:22.963Z,100062.44
2022-12-31T09:52:36.593Z,100064.41
2022-12-31T09:56:02.141Z,100058.31
2022-12-31T09:59:17.905Z,100051.09
2022-12-31T10:02:41.893Z,100066.78
2022-12-31T10:06:21.299Z,100071.59
2022-12-31T10:09:41.704Z,100066.09
2022-12-31T10:13:15.699Z,100063.34
2022-12-31T10:16:39.497Z,100068.34
2022-12-31T10:20:17.000Z,100070.31
2022-12-31T10:23:37.334Z,100065.88
2022-12-31T10:27:00.310Z,100066.84
2022-12-31T10:30:17.314Z,100072.88
2022-12-31T17:11:31.393Z,100192.75
2022-12-31T17:14:48.508Z,100196.41
2022-12-31T17:17:55.148Z,100192.31
2022-12-31T17:21:06.955Z,100197.13
2022-12-31T17:24:13.056Z,100205.16
2022-12-31T17:27:15.067Z,100204.31
2022-12-31T17:30:34.994Z,100211.97
2022-12-31T17:33:37.060Z,100204.97
2022-12-31T17:36:40.670Z,100205.16
2022-12-31T17:39:45.499Z,100201.00
2022-12-31T17:42:47.548Z,100187.66
2022-12-31T17:45:54.323Z,100174.63
2022-12-31T17:49:01.625Z,100165.06
2022-12-31T17:52:03.673Z,100168.88
2022-12-31T17:55:05.835Z,100164.72
2022-12-31T17:58:15.363Z,100164.91
2022-12-31T18:01:20.315Z,100171.28
2022-12-31T18:04:22.277Z,100181.75
2022-12-31T18:07:24.121Z,100170.22
2022-12-31T18:10:27.817Z,100169.28
2022-12-31T18:13:30.849Z,100167.66
2022-12-31T18:16:32.588Z,100175.06
2022-12-31T18:22:56.395Z,100170.16
2022-12-31T18:25:58.288Z,100187.84
2022-12-31T18:29:11.134Z,100185.19
2022-12-31T18:32:31.956Z,100175.47
2022-12-31T18:36:07.027Z,100159.56
2022-12-31T18:38:55.931Z,100162.91
2022-12-31T18:41:57.858Z,100148.91
2022-12-31T18:44:59.869Z,100140.97
2022-12-31T18:48:01.875Z,100142.88
2022-12-31T18:51:03.749Z,100142.50
2022-12-31T18:54:06.973Z,100139.59
2022-12-31T18:57:11.932Z,100147.44
2022-12-31T19:00:14.344Z,100150.19
2022-12-31T19:03:18.236Z,100153.88
2022-12-31T19:06:20.237Z,100159.28
2022-12-31T19:12:44.599Z,100158.97
2022-12-31T19:15:49.663Z,100160.88
2022-12-31T19:18:51.557Z,100147.75
2022-12-31T19:21:53.409Z,100142.53
2022-12-31T19:24:55.301Z,100143.59
2022-12-31T19:27:57.200Z,100133.84
2022-12-31T19:30:59.096Z,100119.88
2022-12-31T19:34:00.877Z,100110.41
2022-12-31T19:37:02.829Z,100096.63
2022-12-31T19:40:05.323Z,100105.72
2022-12-31T19:43:13.004Z,100106.00
2022-12-31T19:46:17.707Z,100104.31
2022-12-31T19:49:19.690Z,100107.59
2022-12-31T19:52:21.489Z,100107.03
2022-12-31T19:55:27.979Z,100100.16
2022-12-31T19:58:29.927Z,100099.97
2022-12-31T20:01:31.877Z,100103.84
2022-12-31T20:04:33.819Z,100100.16
2022-12-31T20:07:35.860Z,100102.88
2022-12-31T20:10:37.874Z,100092.31
2022-12-31T20:13:40.446Z,100105.34
2022-12-31T20:16:42.435Z,100109.59
2022-12-31T20:19:44.536Z,100110.34
2022-12-31T20:22:46.369Z,100105.34
2022-12-31T20:25:57.288Z,100100.44
2022-12-31T20:28:59.486Z,100106.22
2022-12-31T20:32:03.163Z,100099.50
2022-12-31T20:35:05.532Z,100104.13
2022-12-31T20:38:07.427Z,100090.16
2022-12-31T20:41:12.322Z,100101.28
2022-12-31T20:44:14.185Z,100099.59
2022-12-31T20:47:15.949Z,100097.78
2022-12-31T20:50:18.297Z,100091.56
2022-12-31T20:53:20.204Z,100084.38
2022-12-31T20:56:23.342Z,100075.69
2022-12-31T20:59:25.177Z,100056.31
2022-12-31T21:02:40.900Z,100059.63
2022-12-31T21:05:54.137Z,100045.72
2022-12-31T21:08:57.252Z,100055.38
2022-12-31T21:12:25.261Z,100052.91
2022-12-31T21:15:27.583Z,100071.16
2022-12-31T21:18:29.491Z,100077.84
2022-12-31T21:21:31.777Z,100068.22
2022-12-31T21:24:33.687Z,100062.72
2022-12-31T21:27:36.097Z,100062.53
2022-12-31T21:30:41.781Z,100061.47
2022-12-31T21:33:45.273Z,100062.97
2022-12-31T21:36:47.306Z,100045.31
2022-12-31T21:39:49.228Z,100045.22
2022-12-31T21:42:51.233Z,100041.50
2022-12-31T21:46:04.636Z,100055.41
2022-12-31T21:49:07.448Z,100063.13
2022-12-31T21:52:30.459Z,100067.69
2022-12-31T21:55:50.954Z,100070.88
2022-12-31T21:59:14.928Z,100054.81
2022-12-31T22:02:35.320Z,100054.91
2022-12-31T22:05:39.719Z,100052.44
2022-12-31T22:08:44.084Z,100047.81
2022-12-31T22:11:46.265Z,100050.25
2022-12-31T22:15:14.389Z,100045.72
2022-12-31T22:18:10.782Z,100045.59
2022-12-31T22:21:19.466Z,100028.78
2022-12-31T22:24:22.549Z,100028.88
2022-12-31T22:27:29.570Z,100026.03
2022-12-31T22:30:33.635Z,100023.94
2022-12-31T22:33:35.758Z,100005.69
2022-12-31T22:36:37.580Z,99989.50
2022-12-31T22:39:43.860Z,99993.66
2022-12-31T22:42:46.614Z,99978.50
2022-12-31T22:45:48.495Z,99965.28
2022-12-31T22:48:51.443Z,99958.19
2022-12-31T22:51:58.709Z,99952.97
2022-12-31T22:55:02.740Z,99945.56
2022-12-31T22:58:04.628Z,99945.13
2022-12-31T23:01:08.173Z,99952.56
2022-12-31T23:04:10.065Z,99942.09
2022-12-31T23:07:12.043Z,99937.50
2022-12-31T23:10:32.313Z,99937.72
2022-12-31T23:14:01.323Z,99926.53
2022-12-31T23:17:30.080Z,99930.53
2022-12-31T23:20:52.423Z,99930.34
2022-12-31T23:23:54.345Z,99930.53
2022-12-31T23:26:57.387Z,99934.47
2022-12-31T23:29:59.118Z,99937.84
2022-12-31T23:33:01.062Z,99928.84
2022-12-31T23:36:06.826Z,99948.34
2022-12-31T23:39:08.727Z,99941.78
2022-12-31T23:42:10.740Z,99943.47
2022-12-31T23:45:12.578Z,99943.91
2022-12-31T23:48:14.444Z,99946.44
2022-12-31T23:51:16.362Z,99941.88
2022-12-31T23:54:18.239Z,99935.41
2022-12-31T23:57:20.227Z,99927.47
